sensor_id;sensor_type;location;lat;lon;timestamp;P1;durP1;ratioP1;P2;durP2;ratioP2
12267;SDS011;6196;48.398;11.736;2024-03-23T00:54:08;3.53;;;3.23;;
12267;SDS011;6196;48.398;11.736;2024-03-23T00:56:34;3.90;;;3.50;;
12267;SDS011;6196;48.398;11.736;2024-03-23T00:59:00;4.30;;;3.90;;
12267;SDS011;6196;48.398;11.736;2024-03-23T01:01:26;4.43;;;3.63;;
12267;SDS011;6196;48.398;11.736;2024-03-23T01:03:52;4.27;;;3.87;;
12267;SDS011;6196;48.398;11.736;2024-03-23T01:06:18;4.93;;;3.57;;
12267;SDS011;6196;48.398;11.736;2024-03-23T01:08:44;4.70;;;3.40;;
12267;SDS011;6196;48.398;11.736;2024-03-23T01:11:10;5.27;;;4.20;;
12267;SDS011;6196;48.398;11.736;2024-03-23T01:13:37;4.80;;;4.00;;
12267;SDS011;6196;48.398;11.736;2024-03-23T01:16:03;4.33;;;3.73;;
12267;SDS011;6196;48.398;11.736;2024-03-23T01:18:29;5.30;;;3.63;;
12267;SDS011;6196;48.398;11.736;2024-03-23T01:20:55;3.87;;;3.47;;
12267;SDS011;6196;48.398;11.736;2024-03-23T01:23:21;3.70;;;3.03;;
12267;SDS011;6196;48.398;11.736;2024-03-23T01:25:53;5.77;;;3.20;;
12267;SDS011;6196;48.398;11.736;2024-03-23T01:28:20;4.80;;;3.77;;
12267;SDS011;6196;48.398;11.736;2024-03-23T01:30:47;3.87;;;3.50;;
12267;SDS011;6196;48.398;11.736;2024-03-23T01:33:13;4.53;;;3.30;;
12267;SDS011;6196;48.398;11.736;2024-03-23T01:35:39;4.47;;;3.50;;
12267;SDS011;6196;48.398;11.736;2024-03-23T01:38:05;4.13;;;3.60;;
12267;SDS011;6196;48.398;11.736;2024-03-23T01:40:32;4.43;;;3.63;;
12267;SDS011;6196;48.398;11.736;2024-03-23T01:42:58;5.10;;;3.83;;
12267;SDS011;6196;48.398;11.736;2024-03-23T01:45:29;4.23;;;2.97;;
12267;SDS011;6196;48.398;11.736;2024-03-23T01:47:56;3.30;;;3.00;;
12267;SDS011;6196;48.398;11.736;2024-03-23T01:50:22;4.73;;;3.40;;
12267;SDS011;6196;48.398;11.736;2024-03-23T01:52:49;4.03;;;2.97;;
12267;SDS011;6196;48.398;11.736;2024-03-23T01:55:16;5.57;;;3.53;;
12267;SDS011;6196;48.398;11.736;2024-03-23T01:57:42;8.07;;;3.50;;
12267;SDS011;6196;48.398;11.736;2024-03-23T02:00:08;3.43;;;3.13;;
12267;SDS011;6196;48.398;11.736;2024-03-23T02:02:41;5.03;;;3.50;;
12267;SDS011;6196;48.398;11.736;2024-03-23T02:05:11;4.43;;;3.30;;
12267;SDS011;6196;48.398;11.736;2024-03-23T02:07:38;3.63;;;3.20;;
12267;SDS011;6196;48.398;11.736;2024-03-23T02:10:08;3.50;;;3.20;;
12267;SDS011;6196;48.398;11.736;2024-03-23T02:12:35;4.00;;;3.47;;
12267;SDS011;6196;48.398;11.736;2024-03-23T02:15:02;4.00;;;2.90;;
12267;SDS011;6196;48.398;11.736;2024-03-23T02:17:29;4.03;;;3.63;;
12267;SDS011;6196;48.398;11.736;2024-03-23T02:19:59;3.90;;;3.17;;
12267;SDS011;6196;48.398;11.736;2024-03-23T02:22:25;3.83;;;3.43;;
12267;SDS011;6196;48.398;11.736;2024-03-23T02:25:05;3.57;;;3.27;;
12267;SDS011;6196;48.398;11.736;2024-03-23T02:27:32;3.90;;;3.60;;
12267;SDS011;6196;48.398;11.736;2024-03-23T02:29:59;4.57;;;3.90;;
12267;SDS011;6196;48.398;11.736;2024-03-23T02:32:26;3.57;;;3.20;;
12267;SDS011;6196;48.398;11.736;2024-03-23T02:34:52;4.50;;;3.70;;
12267;SDS011;6196;48.398;11.736;2024-03-23T02:37:18;3.73;;;3.43;;
12267;SDS011;6196;48.398;11.736;2024-03-23T02:39:43;4.67;;;4.07;;
12267;SDS011;6196;48.398;11.736;2024-03-23T02:42:09;4.30;;;3.80;;
12267;SDS011;6196;48.398;11.736;2024-03-23T02:44:36;4.00;;;3.10;;
12267;SDS011;6196;48.398;11.736;2024-03-23T02:47:02;4.37;;;3.33;;
12267;SDS011;6196;48.398;11.736;2024-03-23T02:49:27;3.73;;;3.23;;
12267;SDS011;6196;48.398;11.736;2024-03-23T02:51:53;3.30;;;3.00;;
12267;SDS011;6196;48.398;11.736;2024-03-23T02:54:19;6.33;;;3.67;;
12267;SDS011;6196;48.398;11.736;2024-03-23T02:56:45;4.47;;;3.33;;
12267;SDS011;6196;48.398;11.736;2024-03-23T02:59:11;4.07;;;3.67;;
12267;SDS011;6196;48.398;11.736;2024-03-23T03:01:37;5.83;;;3.10;;
12267;SDS011;6196;48.398;11.736;2024-03-23T03:04:03;3.60;;;3.10;;
12267;SDS011;6196;48.398;11.736;2024-03-23T03:06:30;3.23;;;2.87;;
12267;SDS011;6196;48.398;11.736;2024-03-23T03:08:56;3.43;;;2.93;;
12267;SDS011;6196;48.398;11.736;2024-03-23T03:11:23;3.53;;;3.23;;
12267;SDS011;6196;48.398;11.736;2024-03-23T03:13:49;4.10;;;3.70;;
12267;SDS011;6196;48.398;11.736;2024-03-23T03:16:15;4.30;;;3.13;;
12267;SDS011;6196;48.398;11.736;2024-03-23T03:18:41;4.10;;;3.60;;
12267;SDS011;6196;48.398;11.736;2024-03-23T03:21:07;4.53;;;3.27;;
12267;SDS011;6196;48.398;11.736;2024-03-23T03:23:39;3.90;;;3.43;;
12267;SDS011;6196;48.398;11.736;2024-03-23T03:26:05;4.73;;;3.07;;
12267;SDS011;6196;48.398;11.736;2024-03-23T03:28:31;4.93;;;3.83;;
12267;SDS011;6196;48.398;11.736;2024-03-23T03:30:58;3.40;;;3.10;;
12267;SDS011;6196;48.398;11.736;2024-03-23T03:33:26;4.70;;;3.47;;
12267;SDS011;6196;48.398;11.736;2024-03-23T03:35:52;5.37;;;3.43;;
12267;SDS011;6196;48.398;11.736;2024-03-23T03:38:19;3.10;;;2.80;;
12267;SDS011;6196;48.398;11.736;2024-03-23T03:40:45;4.90;;;3.00;;
12267;SDS011;6196;48.398;11.736;2024-03-23T03:43:11;3.50;;;3.20;;
12267;SDS011;6196;48.398;11.736;2024-03-23T03:45:37;3.83;;;3.27;;
12267;SDS011;6196;48.398;11.736;2024-03-23T03:48:03;4.73;;;2.87;;
12267;SDS011;6196;48.398;11.736;2024-03-23T03:50:29;3.80;;;3.30;;
12267;SDS011;6196;48.398;11.736;2024-03-23T03:52:56;4.37;;;2.73;;
12267;SDS011;6196;48.398;11.736;2024-03-23T03:55:21;3.10;;;2.80;;
12267;SDS011;6196;48.398;11.736;2024-03-23T03:57:47;3.77;;;2.97;;
12267;SDS011;6196;48.398;11.736;2024-03-23T04:00:14;3.10;;;2.80;;
12267;SDS011;6196;48.398;11.736;2024-03-23T04:02:41;3.20;;;2.73;;
12267;SDS011;6196;48.398;11.736;2024-03-23T04:05:07;3.10;;;2.90;;
12267;SDS011;6196;48.398;11.736;2024-03-23T04:07:33;3.23;;;2.63;;
12267;SDS011;6196;48.398;11.736;2024-03-23T04:09:59;3.77;;;2.70;;
12267;SDS011;6196;48.398;11.736;2024-03-23T04:12:25;3.13;;;2.83;;
12267;SDS011;6196;48.398;11.736;2024-03-23T04:14:51;4.10;;;3.00;;
12267;SDS011;6196;48.398;11.736;2024-03-23T04:17:17;2.93;;;2.63;;
12267;SDS011;6196;48.398;11.736;2024-03-23T04:19:44;4.43;;;2.83;;
12267;SDS011;6196;48.398;11.736;2024-03-23T04:22:10;4.17;;;3.00;;
12267;SDS011;6196;48.398;11.736;2024-03-23T04:24:36;3.40;;;3.10;;
12267;SDS011;6196;48.398;11.736;2024-03-23T04:27:02;3.40;;;2.77;;
12267;SDS011;6196;48.398;11.736;2024-03-23T04:29:28;3.00;;;2.70;;
12267;SDS011;6196;48.398;11.736;2024-03-23T04:31:54;4.07;;;2.77;;
12267;SDS011;6196;48.398;11.736;2024-03-23T04:34:21;3.13;;;2.70;;
12267;SDS011;6196;48.398;11.736;2024-03-23T04:36:48;6.07;;;3.20;;
12267;SDS011;6196;48.398;11.736;2024-03-23T04:39:14;4.63;;;2.97;;
12267;SDS011;6196;48.398;11.736;2024-03-23T04:41:40;3.53;;;3.03;;
12267;SDS011;6196;48.398;11.736;2024-03-23T04:44:06;4.90;;;2.70;;
12267;SDS011;6196;48.398;11.736;2024-03-23T04:46:32;3.07;;;2.77;;
12267;SDS011;6196;48.398;11.736;2024-03-23T04:48:58;2.80;;;2.50;;
12267;SDS011;6196;48.398;11.736;2024-03-23T04:51:24;3.50;;;2.70;;
12267;SDS011;6196;48.398;11.736;2024-03-23T04:53:51;3.23;;;2.53;;
12267;SDS011;6196;48.398;11.736;2024-03-23T04:56:17;2.80;;;2.60;;
12267;SDS011;6196;48.398;11.736;2024-03-23T04:58:44;3.70;;;2.73;;
12267;SDS011;6196;48.398;11.736;2024-03-23T05:01:10;4.10;;;2.40;;
12267;SDS011;6196;48.398;11.736;2024-03-23T05:03:37;4.73;;;2.80;;
12267;SDS011;6196;48.398;11.736;2024-03-23T05:06:03;3.87;;;2.97;;
12267;SDS011;6196;48.398;11.736;2024-03-23T05:08:30;3.73;;;2.83;;
12267;SDS011;6196;48.398;11.736;2024-03-23T05:10:56;4.33;;;2.70;;
12267;SDS011;6196;48.398;11.736;2024-03-23T05:13:22;4.17;;;2.50;;
12267;SDS011;6196;48.398;11.736;2024-03-23T05:15:54;3.10;;;2.63;;
12267;SDS011;6196;48.398;11.736;2024-03-23T05:18:21;3.03;;;2.47;;
12267;SDS011;6196;48.398;11.736;2024-03-23T05:20:47;3.33;;;2.77;;
12267;SDS011;6196;48.398;11.736;2024-03-23T05:23:13;3.03;;;2.30;;
12267;SDS011;6196;48.398;11.736;2024-03-23T05:25:39;2.57;;;2.37;;
12267;SDS011;6196;48.398;11.736;2024-03-23T05:28:05;3.80;;;2.00;;
12267;SDS011;6196;48.398;11.736;2024-03-23T05:30:32;2.47;;;2.07;;
12267;SDS011;6196;48.398;11.736;2024-03-23T05:32:57;2.53;;;2.33;;
12267;SDS011;6196;48.398;11.736;2024-03-23T05:35:23;3.33;;;2.30;;
12267;SDS011;6196;48.398;11.736;2024-03-23T05:37:49;2.57;;;2.37;;
12267;SDS011;6196;48.398;11.736;2024-03-23T05:40:15;2.60;;;2.40;;
12267;SDS011;6196;48.398;11.736;2024-03-23T05:42:41;4.17;;;2.43;;
12267;SDS011;6196;48.398;11.736;2024-03-23T05:45:07;2.93;;;2.67;;
12267;SDS011;6196;48.398;11.736;2024-03-23T05:47:34;2.73;;;2.23;;
12267;SDS011;6196;48.398;11.736;2024-03-23T05:50:00;4.10;;;2.67;;
12267;SDS011;6196;48.398;11.736;2024-03-23T05:52:27;5.17;;;2.13;;
12267;SDS011;6196;48.398;11.736;2024-03-23T05:54:53;3.10;;;2.50;;
12267;SDS011;6196;48.398;11.736;2024-03-23T05:57:19;4.30;;;2.60;;
12267;SDS011;6196;48.398;11.736;2024-03-23T05:59:45;4.50;;;2.13;;
12267;SDS011;6196;48.398;11.736;2024-03-23T06:02:11;2.80;;;2.37;;
12267;SDS011;6196;48.398;11.736;2024-03-23T06:04:37;3.20;;;2.10;;
12267;SDS011;6196;48.398;11.736;2024-03-23T06:07:03;3.77;;;2.17;;
12267;SDS011;6196;48.398;11.736;2024-03-23T06:09:31;2.50;;;2.30;;
12267;SDS011;6196;48.398;11.736;2024-03-23T06:11:57;2.53;;;2.20;;
12267;SDS011;6196;48.398;11.736;2024-03-23T06:14:23;4.43;;;2.27;;
12267;SDS011;6196;48.398;11.736;2024-03-23T06:16:49;2.17;;;1.87;;
12267;SDS011;6196;48.398;11.736;2024-03-23T06:19:15;2.40;;;1.80;;
12267;SDS011;6196;48.398;11.736;2024-03-23T06:21:44;2.20;;;1.90;;
12267;SDS011;6196;48.398;11.736;2024-03-23T06:24:11;4.13;;;2.23;;
12267;SDS011;6196;48.398;11.736;2024-03-23T06:26:37;3.80;;;2.03;;
12267;SDS011;6196;48.398;11.736;2024-03-23T06:29:03;3.70;;;2.17;;
12267;SDS011;6196;48.398;11.736;2024-03-23T06:31:30;2.43;;;2.23;;
12267;SDS011;6196;48.398;11.736;2024-03-23T06:33:57;3.90;;;2.07;;
12267;SDS011;6196;48.398;11.736;2024-03-23T06:36:22;3.40;;;1.73;;
12267;SDS011;6196;48.398;11.736;2024-03-23T06:38:49;2.50;;;1.90;;
12267;SDS011;6196;48.398;11.736;2024-03-23T06:41:16;3.30;;;1.60;;
12267;SDS011;6196;48.398;11.736;2024-03-23T06:43:42;4.57;;;1.60;;
12267;SDS011;6196;48.398;11.736;2024-03-23T06:46:09;2.33;;;1.90;;
12267;SDS011;6196;48.398;11.736;2024-03-23T06:48:34;2.67;;;1.73;;
12267;SDS011;6196;48.398;11.736;2024-03-23T06:51:00;2.47;;;1.67;;
12267;SDS011;6196;48.398;11.736;2024-03-23T06:53:26;2.27;;;1.73;;
12267;SDS011;6196;48.398;11.736;2024-03-23T06:55:53;2.73;;;1.70;;
12267;SDS011;6196;48.398;11.736;2024-03-23T06:58:23;1.70;;;1.60;;
12267;SDS011;6196;48.398;11.736;2024-03-23T07:00:50;2.47;;;1.57;;
12267;SDS011;6196;48.398;11.736;2024-03-23T07:03:16;2.17;;;1.97;;
12267;SDS011;6196;48.398;11.736;2024-03-23T07:05:43;2.20;;;1.73;;
12267;SDS011;6196;48.398;11.736;2024-03-23T07:08:09;1.70;;;1.53;;
12267;SDS011;6196;48.398;11.736;2024-03-23T07:10:35;2.20;;;1.50;;
12267;SDS011;6196;48.398;11.736;2024-03-23T07:13:04;3.80;;;1.57;;
12267;SDS011;6196;48.398;11.736;2024-03-23T07:15:30;3.03;;;1.60;;
12267;SDS011;6196;48.398;11.736;2024-03-23T07:17:56;3.83;;;1.80;;
12267;SDS011;6196;48.398;11.736;2024-03-23T07:20:22;3.80;;;1.53;;
12267;SDS011;6196;48.398;11.736;2024-03-23T07:22:48;2.77;;;1.43;;
12267;SDS011;6196;48.398;11.736;2024-03-23T07:25:14;3.47;;;1.70;;
12267;SDS011;6196;48.398;11.736;2024-03-23T07:27:40;1.93;;;1.60;;
12267;SDS011;6196;48.398;11.736;2024-03-23T07:30:06;2.13;;;1.40;;
12267;SDS011;6196;48.398;11.736;2024-03-23T07:32:34;1.73;;;1.50;;
12267;SDS011;6196;48.398;11.736;2024-03-23T07:35:01;2.73;;;1.90;;
12267;SDS011;6196;48.398;11.736;2024-03-23T07:37:27;1.63;;;1.53;;
12267;SDS011;6196;48.398;11.736;2024-03-23T07:39:53;3.50;;;1.80;;
12267;SDS011;6196;48.398;11.736;2024-03-23T07:42:19;3.30;;;2.27;;
12267;SDS011;6196;48.398;11.736;2024-03-23T07:44:45;3.30;;;2.10;;
12267;SDS011;6196;48.398;11.736;2024-03-23T07:47:11;3.73;;;2.27;;
12267;SDS011;6196;48.398;11.736;2024-03-23T07:49:37;3.90;;;2.13;;
12267;SDS011;6196;48.398;11.736;2024-03-23T07:52:05;3.60;;;2.37;;
12267;SDS011;6196;48.398;11.736;2024-03-23T07:54:31;2.80;;;2.40;;
12267;SDS011;6196;48.398;11.736;2024-03-23T07:56:57;4.73;;;2.30;;
12267;SDS011;6196;48.398;11.736;2024-03-23T07:59:23;3.57;;;2.63;;
12267;SDS011;6196;48.398;11.736;2024-03-23T08:01:49;2.67;;;2.07;;
12267;SDS011;6196;48.398;11.736;2024-03-23T08:04:15;3.83;;;2.40;;
12267;SDS011;6196;48.398;11.736;2024-03-23T08:06:41;5.70;;;4.77;;
12267;SDS011;6196;48.398;11.736;2024-03-23T08:09:06;5.27;;;4.77;;
12267;SDS011;6196;48.398;11.736;2024-03-23T08:11:32;7.83;;;6.20;;
12267;SDS011;6196;48.398;11.736;2024-03-23T08:14:00;7.67;;;6.10;;
12267;SDS011;6196;48.398;11.736;2024-03-23T08:16:26;7.60;;;6.13;;
12267;SDS011;6196;48.398;11.736;2024-03-23T08:18:53;6.57;;;5.33;;
12267;SDS011;6196;48.398;11.736;2024-03-23T08:21:22;7.03;;;5.17;;
12267;SDS011;6196;48.398;11.736;2024-03-23T08:23:48;5.20;;;4.70;;
12267;SDS011;6196;48.398;11.736;2024-03-23T08:26:15;4.57;;;4.17;;
12267;SDS011;6196;48.398;11.736;2024-03-23T08:28:43;5.40;;;4.20;;
12267;SDS011;6196;48.398;11.736;2024-03-23T08:31:10;3.73;;;3.40;;
12267;SDS011;6196;48.398;11.736;2024-03-23T08:33:37;4.50;;;3.90;;
12267;SDS011;6196;48.398;11.736;2024-03-23T08:36:05;5.67;;;4.23;;
12267;SDS011;6196;48.398;11.736;2024-03-23T08:38:33;4.70;;;4.17;;
12267;SDS011;6196;48.398;11.736;2024-03-23T08:43:30;4.40;;;3.97;;
12267;SDS011;6196;48.398;11.736;2024-03-23T08:46:04;5.27;;;4.27;;
12267;SDS011;6196;48.398;11.736;2024-03-23T08:48:39;6.10;;;4.20;;
12267;SDS011;6196;48.398;11.736;2024-03-23T08:51:09;6.87;;;4.50;;
12267;SDS011;6196;48.398;11.736;2024-03-23T08:53:37;4.47;;;4.07;;
12267;SDS011;6196;48.398;11.736;2024-03-23T08:56:03;4.07;;;3.67;;
12267;SDS011;6196;48.398;11.736;2024-03-23T08:58:34;5.43;;;4.20;;
12267;SDS011;6196;48.398;11.736;2024-03-23T09:01:07;4.00;;;3.60;;
12267;SDS011;6196;48.398;11.736;2024-03-23T09:03:38;4.87;;;4.00;;
12267;SDS011;6196;48.398;11.736;2024-03-23T09:06:08;4.87;;;3.93;;
12267;SDS011;6196;48.398;11.736;2024-03-23T09:08:39;4.40;;;3.57;;
12267;SDS011;6196;48.398;11.736;2024-03-23T09:11:10;3.97;;;3.37;;
12267;SDS011;6196;48.398;11.736;2024-03-23T09:13:37;4.03;;;3.47;;
12267;SDS011;6196;48.398;11.736;2024-03-23T09:16:05;3.60;;;3.30;;
12267;SDS011;6196;48.398;11.736;2024-03-23T09:18:32;4.13;;;3.13;;
12267;SDS011;6196;48.398;11.736;2024-03-23T09:20:59;3.27;;;2.97;;
12267;SDS011;6196;48.398;11.736;2024-03-23T09:23:25;2.90;;;2.60;;
12267;SDS011;6196;48.398;11.736;2024-03-23T09:25:51;3.20;;;2.80;;
12267;SDS011;6196;48.398;11.736;2024-03-23T09:28:16;2.60;;;2.40;;
12267;SDS011;6196;48.398;11.736;2024-03-23T09:30:42;3.03;;;2.27;;
12267;SDS011;6196;48.398;11.736;2024-03-23T09:33:09;2.63;;;2.33;;
12267;SDS011;6196;48.398;11.736;2024-03-23T09:35:39;2.37;;;2.17;;
12267;SDS011;6196;48.398;11.736;2024-03-23T09:38:06;2.20;;;2.00;;
12267;SDS011;6196;48.398;11.736;2024-03-23T09:40:39;2.93;;;2.00;;
12267;SDS011;6196;48.398;11.736;2024-03-23T09:43:07;2.67;;;2.10;;
12267;SDS011;6196;48.398;11.736;2024-03-23T09:45:34;3.20;;;2.40;;
12267;SDS011;6196;48.398;11.736;2024-03-23T09:48:06;2.17;;;1.83;;
12267;SDS011;6196;48.398;11.736;2024-03-23T09:50:36;2.57;;;2.00;;
12267;SDS011;6196;48.398;11.736;2024-03-23T09:53:10;2.40;;;2.20;;
12267;SDS011;6196;48.398;11.736;2024-03-23T09:55:43;2.10;;;1.90;;
12267;SDS011;6196;48.398;11.736;2024-03-23T09:58:14;2.00;;;1.90;;
12267;SDS011;6196;48.398;11.736;2024-03-23T10:00:42;2.10;;;1.90;;
12267;SDS011;6196;48.398;11.736;2024-03-23T10:03:08;2.40;;;2.17;;
12267;SDS011;6196;48.398;11.736;2024-03-23T10:05:36;2.03;;;1.87;;
12267;SDS011;6196;48.398;11.736;2024-03-23T10:10:41;1.90;;;1.60;;
12267;SDS011;6196;48.398;11.736;2024-03-23T10:13:08;1.80;;;1.30;;
12267;SDS011;6196;48.398;11.736;2024-03-23T10:15:35;1.30;;;1.20;;
12267;SDS011;6196;48.398;11.736;2024-03-23T10:18:17;1.10;;;1.00;;
12267;SDS011;6196;48.398;11.736;2024-03-23T10:20:51;1.03;;;0.93;;
12267;SDS011;6196;48.398;11.736;2024-03-23T10:23:41;1.13;;;1.00;;
12267;SDS011;6196;48.398;11.736;2024-03-23T10:26:29;1.40;;;1.20;;
12267;SDS011;6196;48.398;11.736;2024-03-23T10:28:56;2.27;;;1.27;;
12267;SDS011;6196;48.398;11.736;2024-03-23T10:31:29;1.50;;;1.40;;
12267;SDS011;6196;48.398;11.736;2024-03-23T10:33:57;1.60;;;1.50;;
12267;SDS011;6196;48.398;11.736;2024-03-23T10:36:23;2.77;;;1.60;;
12267;SDS011;6196;48.398;11.736;2024-03-23T10:38:53;1.87;;;1.60;;
12267;SDS011;6196;48.398;11.736;2024-03-23T10:41:20;1.37;;;1.20;;
12267;SDS011;6196;48.398;11.736;2024-03-23T10:43:46;2.40;;;1.40;;
12267;SDS011;6196;48.398;11.736;2024-03-23T10:46:14;2.13;;;1.30;;
12267;SDS011;6196;48.398;11.736;2024-03-23T10:48:40;1.93;;;1.00;;
12267;SDS011;6196;48.398;11.736;2024-03-23T10:51:08;0.60;;;0.60;;
12267;SDS011;6196;48.398;11.736;2024-03-23T10:53:36;1.10;;;1.00;;
12267;SDS011;6196;48.398;11.736;2024-03-23T10:56:02;0.87;;;0.60;;
12267;SDS011;6196;48.398;11.736;2024-03-23T11:01:04;0.80;;;0.77;;
12267;SDS011;6196;48.398;11.736;2024-03-23T11:03:31;0.80;;;0.80;;
12267;SDS011;6196;48.398;11.736;2024-03-23T11:06:04;0.80;;;0.80;;
12267;SDS011;6196;48.398;11.736;2024-03-23T11:08:32;0.70;;;0.70;;
12267;SDS011;6196;48.398;11.736;2024-03-23T11:11:19;1.20;;;1.10;;
12267;SDS011;6196;48.398;11.736;2024-03-23T11:13:47;1.10;;;1.00;;
12267;SDS011;6196;48.398;11.736;2024-03-23T11:16:16;1.00;;;0.80;;
12267;SDS011;6196;48.398;11.736;2024-03-23T11:19:32;0.80;;;0.80;;
12267;SDS011;6196;48.398;11.736;2024-03-23T11:22:04;0.90;;;0.90;;
12267;SDS011;6196;48.398;11.736;2024-03-23T11:24:30;0.90;;;0.90;;
12267;SDS011;6196;48.398;11.736;2024-03-23T11:26:57;0.80;;;0.70;;
12267;SDS011;6196;48.398;11.736;2024-03-23T11:29:27;0.60;;;0.60;;
12267;SDS011;6196;48.398;11.736;2024-03-23T11:31:54;0.97;;;0.90;;
12267;SDS011;6196;48.398;11.736;2024-03-23T11:34:22;0.80;;;0.70;;
12267;SDS011;6196;48.398;11.736;2024-03-23T11:36:48;1.00;;;0.80;;
12267;SDS011;6196;48.398;11.736;2024-03-23T11:39:17;1.87;;;0.80;;
12267;SDS011;6196;48.398;11.736;2024-03-23T11:41:48;1.60;;;0.77;;
12267;SDS011;6196;48.398;11.736;2024-03-23T11:44:17;1.53;;;0.60;;
12267;SDS011;6196;48.398;11.736;2024-03-23T11:46:50;1.50;;;0.67;;
12267;SDS011;6196;48.398;11.736;2024-03-23T11:49:27;0.80;;;0.80;;
12267;SDS011;6196;48.398;11.736;2024-03-23T11:51:55;1.17;;;0.70;;
12267;SDS011;6196;48.398;11.736;2024-03-23T11:54:25;2.50;;;0.90;;
12267;SDS011;6196;48.398;11.736;2024-03-23T11:57:02;1.97;;;0.80;;
12267;SDS011;6196;48.398;11.736;2024-03-23T11:59:31;1.30;;;0.90;;
12267;SDS011;6196;48.398;11.736;2024-03-23T12:02:08;2.37;;;0.80;;
12267;SDS011;6196;48.398;11.736;2024-03-23T12:04:36;0.97;;;0.60;;
12267;SDS011;6196;48.398;11.736;2024-03-23T12:07:16;2.87;;;0.90;;
12267;SDS011;6196;48.398;11.736;2024-03-23T12:09:47;1.33;;;1.00;;
12267;SDS011;6196;48.398;11.736;2024-03-23T12:12:29;1.97;;;0.90;;
12267;SDS011;6196;48.398;11.736;2024-03-23T12:15:02;2.30;;;0.90;;
12267;SDS011;6196;48.398;11.736;2024-03-23T12:17:33;1.43;;;0.83;;
12267;SDS011;6196;48.398;11.736;2024-03-23T12:20:00;1.30;;;1.10;;
12267;SDS011;6196;48.398;11.736;2024-03-23T12:22:27;1.57;;;1.33;;
12267;SDS011;6196;48.398;11.736;2024-03-23T12:24:54;2.20;;;1.27;;
12267;SDS011;6196;48.398;11.736;2024-03-23T12:27:21;2.23;;;1.20;;
12267;SDS011;6196;48.398;11.736;2024-03-23T12:29:48;2.87;;;1.00;;
12267;SDS011;6196;48.398;11.736;2024-03-23T12:32:14;2.97;;;1.03;;
12267;SDS011;6196;48.398;11.736;2024-03-23T12:34:41;2.30;;;1.30;;
12267;SDS011;6196;48.398;11.736;2024-03-23T12:37:08;3.23;;;1.37;;
12267;SDS011;6196;48.398;11.736;2024-03-23T12:39:37;2.17;;;1.37;;
12267;SDS011;6196;48.398;11.736;2024-03-23T12:42:03;1.67;;;1.00;;
12267;SDS011;6196;48.398;11.736;2024-03-23T12:44:30;2.40;;;1.37;;
12267;SDS011;6196;48.398;11.736;2024-03-23T12:46:56;2.37;;;1.40;;
12267;SDS011;6196;48.398;11.736;2024-03-23T12:49:22;2.57;;;1.60;;
12267;SDS011;6196;48.398;11.736;2024-03-23T12:51:55;3.70;;;1.50;;
12267;SDS011;6196;48.398;11.736;2024-03-23T12:54:22;3.33;;;1.63;;
12267;SDS011;6196;48.398;11.736;2024-03-23T12:56:49;5.53;;;1.70;;
12267;SDS011;6196;48.398;11.736;2024-03-23T12:59:15;2.53;;;1.30;;
12267;SDS011;6196;48.398;11.736;2024-03-23T13:01:42;2.83;;;1.77;;
12267;SDS011;6196;48.398;11.736;2024-03-23T13:04:09;3.07;;;1.70;;
12267;SDS011;6196;48.398;11.736;2024-03-23T13:06:35;3.87;;;1.67;;
12267;SDS011;6196;48.398;11.736;2024-03-23T13:09:01;2.13;;;1.30;;
12267;SDS011;6196;48.398;11.736;2024-03-23T13:11:28;2.53;;;1.90;;
12267;SDS011;6196;48.398;11.736;2024-03-23T13:13:55;3.40;;;1.70;;
12267;SDS011;6196;48.398;11.736;2024-03-23T13:16:21;2.63;;;1.73;;
12267;SDS011;6196;48.398;11.736;2024-03-23T13:18:47;3.93;;;2.07;;
12267;SDS011;6196;48.398;11.736;2024-03-23T13:21:13;4.30;;;2.10;;
12267;SDS011;6196;48.398;11.736;2024-03-23T13:23:39;4.80;;;2.07;;
12267;SDS011;6196;48.398;11.736;2024-03-23T13:26:07;4.53;;;2.30;;
12267;SDS011;6196;48.398;11.736;2024-03-23T13:28:33;2.97;;;2.00;;
12267;SDS011;6196;48.398;11.736;2024-03-23T13:31:01;4.43;;;2.40;;
12267;SDS011;6196;48.398;11.736;2024-03-23T13:33:29;4.13;;;2.10;;
12267;SDS011;6196;48.398;11.736;2024-03-23T13:35:57;3.80;;;2.23;;
12267;SDS011;6196;48.398;11.736;2024-03-23T13:38:24;4.20;;;2.07;;
12267;SDS011;6196;48.398;11.736;2024-03-23T13:40:55;6.47;;;2.63;;
12267;SDS011;6196;48.398;11.736;2024-03-23T13:43:22;2.53;;;2.23;;
12267;SDS011;6196;48.398;11.736;2024-03-23T13:45:56;4.97;;;2.80;;
12267;SDS011;6196;48.398;11.736;2024-03-23T13:48:23;4.67;;;2.37;;
12267;SDS011;6196;48.398;11.736;2024-03-23T13:50:58;5.27;;;2.67;;
12267;SDS011;6196;48.398;11.736;2024-03-23T13:53:24;5.17;;;2.60;;
12267;SDS011;6196;48.398;11.736;2024-03-23T13:55:50;4.30;;;3.10;;
12267;SDS011;6196;48.398;11.736;2024-03-23T13:58:16;5.00;;;2.77;;
12267;SDS011;6196;48.398;11.736;2024-03-23T14:00:42;4.00;;;2.70;;
12267;SDS011;6196;48.398;11.736;2024-03-23T14:03:09;5.60;;;2.73;;
12267;SDS011;6196;48.398;11.736;2024-03-23T14:05:38;4.40;;;2.80;;
12267;SDS011;6196;48.398;11.736;2024-03-23T14:08:06;5.30;;;3.10;;
12267;SDS011;6196;48.398;11.736;2024-03-23T14:10:33;3.00;;;2.43;;
12267;SDS011;6196;48.398;11.736;2024-03-23T14:13:01;3.20;;;2.17;;
12267;SDS011;6196;48.398;11.736;2024-03-23T14:15:28;4.13;;;2.27;;
12267;SDS011;6196;48.398;11.736;2024-03-23T14:17:57;2.83;;;2.43;;
12267;SDS011;6196;48.398;11.736;2024-03-23T14:20:24;3.67;;;2.20;;
12267;SDS011;6196;48.398;11.736;2024-03-23T14:22:51;2.10;;;1.83;;
12267;SDS011;6196;48.398;11.736;2024-03-23T14:25:18;2.37;;;1.80;;
12267;SDS011;6196;48.398;11.736;2024-03-23T14:27:44;4.37;;;1.97;;
12267;SDS011;6196;48.398;11.736;2024-03-23T14:30:11;2.57;;;1.70;;
12267;SDS011;6196;48.398;11.736;2024-03-23T14:32:38;1.87;;;1.67;;
12267;SDS011;6196;48.398;11.736;2024-03-23T14:35:04;4.20;;;1.90;;
12267;SDS011;6196;48.398;11.736;2024-03-23T14:37:38;3.70;;;2.00;;
12267;SDS011;6196;48.398;11.736;2024-03-23T14:40:07;3.97;;;1.47;;
12267;SDS011;6196;48.398;11.736;2024-03-23T14:42:33;2.63;;;2.10;;
12267;SDS011;6196;48.398;11.736;2024-03-23T14:44:59;5.87;;;2.10;;
12267;SDS011;6196;48.398;11.736;2024-03-23T14:47:25;2.57;;;1.60;;
12267;SDS011;6196;48.398;11.736;2024-03-23T14:49:51;3.70;;;1.90;;
12267;SDS011;6196;48.398;11.736;2024-03-23T14:52:17;2.17;;;1.50;;
12267;SDS011;6196;48.398;11.736;2024-03-23T14:54:44;2.67;;;1.80;;
12267;SDS011;6196;48.398;11.736;2024-03-23T14:57:10;2.53;;;1.57;;
12267;SDS011;6196;48.398;11.736;2024-03-23T14:59:37;2.73;;;1.77;;
12267;SDS011;6196;48.398;11.736;2024-03-23T15:02:08;2.93;;;1.90;;
12267;SDS011;6196;48.398;11.736;2024-03-23T15:04:34;2.20;;;1.60;;
12267;SDS011;6196;48.398;11.736;2024-03-23T15:07:01;2.90;;;1.80;;
12267;SDS011;6196;48.398;11.736;2024-03-23T15:09:27;2.37;;;1.47;;
12267;SDS011;6196;48.398;11.736;2024-03-23T15:11:53;4.43;;;1.70;;
12267;SDS011;6196;48.398;11.736;2024-03-23T15:14:21;4.07;;;1.73;;
12267;SDS011;6196;48.398;11.736;2024-03-23T15:16:46;3.40;;;1.53;;
12267;SDS011;6196;48.398;11.736;2024-03-23T15:19:14;3.23;;;1.53;;
12267;SDS011;6196;48.398;11.736;2024-03-23T15:21:42;4.27;;;1.90;;
12267;SDS011;6196;48.398;11.736;2024-03-23T15:24:09;3.03;;;1.67;;
12267;SDS011;6196;48.398;11.736;2024-03-23T15:26:36;4.23;;;1.63;;
12267;SDS011;6196;48.398;11.736;2024-03-23T15:29:03;4.80;;;1.60;;
12267;SDS011;6196;48.398;11.736;2024-03-23T15:31:36;3.50;;;1.50;;
12267;SDS011;6196;48.398;11.736;2024-03-23T15:34:03;2.77;;;1.40;;
12267;SDS011;6196;48.398;11.736;2024-03-23T15:36:29;3.00;;;1.43;;
12267;SDS011;6196;48.398;11.736;2024-03-23T15:38:56;2.93;;;1.43;;
12267;SDS011;6196;48.398;11.736;2024-03-23T15:41:22;5.47;;;1.90;;
12267;SDS011;6196;48.398;11.736;2024-03-23T15:43:49;5.53;;;1.93;;
12267;SDS011;6196;48.398;11.736;2024-03-23T15:46:16;2.00;;;1.50;;
12267;SDS011;6196;48.398;11.736;2024-03-23T15:48:44;3.03;;;1.50;;
12267;SDS011;6196;48.398;11.736;2024-03-23T15:51:14;4.43;;;1.93;;